Terminal Aerodrome Forecast
Issued by NWS

Home | Current Version | Previous Version | Text Only | Print | Product List | Glossary On
Versions: 1 2 3 4 5 6 7 8 9 10 11 12 13 14 15
000
FTUS42 KMLB 282300 RRA
TAFLEE
TAF
KLEE 282342Z 2900/2924 25009G17KT P6SM FEW035 BKN250
     FM290400 24006KT P6SM SCT250
     FM290800 24006KT P6SM VCSH SCT025 BKN250
      TEMPO 2908/2912 SHRA BKN025
     FM291200 28010KT P6SM VCSH SCT040 BKN080 BKN250
     FM291800 29011KT P6SM VCTS SCT040CB BKN250=

USA.gov is the U.S. government's official web portal to all federal, state and local government web resources and services.